Latest Weather Observations for Cooma Airport

IDN60801

Issued at 2:32 pm EDT Saturday 28 March 2015 (issued every 30 minutes, with the page automatically refreshed every 10 minutes)

About weather observations | Map of weather stations | Latest weather observations for NSW | Other Formats
Station Details ID: 070217 Name: COOMA AIRPORT AWS Lat: -36.29 Lon: 148.97 Height: 930.0 m
Data from the previous 72 hours. | See also: Recent months for locations in New South Wales
Date/Time
EDT
Temp
°C
App
Temp
°C
Dew
Point
Rel
Hum
%
Delta-T
°C
Wind Press
QNH
hPa
Press
MSL
hPa
Rain
since 9 am
mm
Dir
 
Spd
km/h
Gust
km/h
Spd
kts
Gust
kts
28/02:30pm 17.5 15.0 3.8 40 6.7 SE 6 15 3 8 1022.7 1019.9 0.0
28/02:00pm 16.8 13.7 3.5 41 6.4 NE 9 15 5 8 1023.2 1020.5 0.0
28/01:30pm 15.7 13.2 3.5 44 5.9 SSE 6 13 3 7 1023.3 1020.6 0.0
28/01:00pm 15.1 12.6 3.6 46 5.5 S 6 9 3 5 1023.8 1021.0 0.0
28/12:30pm 14.0 11.3 3.5 49 5.0 WSW 7 11 4 6 1024.4 1021.7 0.0
28/12:00pm 13.5 10.4 3.8 52 4.6 SW 9 15 5 8 1024.8 1022.0 0.0
28/11:30am 12.8 9.8 4.0 55 4.2 W 9 15 5 8 1025.1 1022.4 0.0
28/11:00am 11.7 8.6 3.7 58 3.7 SW 9 19 5 10 1025.2 1022.5 0.0
28/10:30am 10.7 6.8 3.3 60 3.4 SW 13 20 7 11 1025.2 1022.5 0.0
28/10:00am 9.6 5.3 3.4 65 2.8 SW 15 24 8 13 1025.2 1022.5 0.0
28/09:30am 9.0 4.7 3.2 67 2.6 SW 15 24 8 13 1025.2 1022.5 0.0
28/09:00am 8.0 4.2 3.7 74 1.9 SSW 13 17 7 9 1025.1 1022.4 0.0
28/08:30am 5.8 4.6 4.4 91 0.6 CALM 0 0 0 0 1024.9 1022.1 0.0
28/08:00am 1.6 -0.2 1.5 99 0.0 CALM 0 6 0 3 1024.8 1022.0 0.0
28/07:30am -1.0 -3.2 -1.7 95 0.2 CALM 0 0 0 0 1024.3 1021.6 0.0
28/07:00am 1.2 -1.8 1.1 99 0.0 W 6 11 3 6 1023.7 1020.9 0.0
28/06:30am -0.2 -3.4 -0.5 98 0.1 WSW 6 11 3 6 1023.4 1020.7 0.0
28/05:30am 1.8 -0.6 -0.6 84 0.9 SSW 2 6 1 3 1023.0 1020.3 0.0
28/05:00am 4.6 1.6 2.3 85 1.0 W 7 9 4 5 1022.8 1020.0 0.0
28/04:30am 5.3 1.7 3.2 86 0.9 WSW 11 20 6 11 1022.7 1019.9 0.0
28/04:00am 5.8 1.2 3.5 85 1.0 SW 17 20 9 11 1022.5 1019.7 0.0
28/03:30am 6.1 2.2 3.4 83 1.2 WSW 13 15 7 8 1022.6 1019.8 0.0
28/03:00am 6.8 3.8 4.1 83 1.2 SW 9 13 5 7 1022.8 1020.0 0.0
28/02:30am 6.7 3.7 3.9 82 1.3 WSW 9 15 5 8 1022.8 1020.0 0.0
28/02:00am 7.5 4.0 3.4 75 1.8 SW 11 15 6 8 1022.7 1019.9 0.0
28/01:30am 8.3 4.5 3.9 74 2.0 SSW 13 15 7 8 1022.6 1019.8 0.0
28/01:00am 8.8 4.8 3.0 67 2.6 SW 13 17 7 9 1022.7 1019.9 0.0
28/12:30am 8.0 2.9 2.9 70 2.3 SW 19 24 10 13 1022.5 1019.7 0.0
 
Date/Time
EDT
Temp
°C
App
Temp
°C
Dew
Point
Rel
Hum
%
Delta-T
°C
Wind Press
QNH
hPa
Press
MSL
hPa
Rain
since 9 am
mm
Dir
 
Spd
km/h
Gust
km/h
Spd
kts
Gust
kts
27/11:30pm 9.2 4.6 3.6 68 2.6 WSW 17 20 9 11 1022.1 1019.4 0.0
27/11:00pm 9.7 6.6 3.7 66 2.8 W 9 17 5 9 1022.2 1019.5 0.0
27/10:30pm 10.3 6.1 3.8 64 3.0 WSW 15 19 8 10 1022.1 1019.4 0.0
27/10:00pm 10.4 6.6 3.7 63 3.1 W 13 19 7 10 1021.9 1019.1 0.0
27/09:30pm 10.5 5.3 3.8 63 3.1 WSW 20 28 11 15 1021.6 1018.8 0.0
27/09:00pm 10.3 6.4 3.6 63 3.1 WNW 13 17 7 9 1021.5 1018.7 0.0
27/08:30pm 10.5 5.3 3.3 61 3.3 W 20 28 11 15 1020.9 1018.1 0.0
27/08:00pm 10.4 5.7 3.2 61 3.3 W 17 24 9 13 1020.6 1017.8 0.0
27/07:30pm 10.3 5.6 3.1 61 3.3 W 17 24 9 13 1020.2 1017.4 0.0
27/07:00pm 11.1 5.0 2.9 57 3.8 W 24 35 13 19 1019.7 1016.9 0.0
27/06:30pm 12.5 6.1 3.2 53 4.4 W 26 37 14 20 1019.6 1016.8 0.0
27/06:00pm 12.5 5.7 2.9 52 4.5 W 28 41 15 22 1019.6 1016.8 0.0
27/05:30pm 13.8 6.6 3.0 48 5.1 W 30 41 16 22 1019.2 1016.4 0.0
27/05:15pm 13.7 6.0 2.3 46 5.3 W 32 52 17 28 1019.2 1016.4 0.0
27/05:00pm 14.1 6.3 2.7 46 5.3 WSW 33 46 18 25 1019.1 1016.2 0.0
27/04:30pm 13.6 5.3 1.9 45 5.4 W 35 50 19 27 1019.1 1016.2 0.0
27/04:00pm 14.7 6.8 2.3 43 5.8 W 33 50 18 27 1019.0 1016.1 0.0
27/03:30pm 15.0 7.1 2.5 43 5.9 W 33 48 18 26 1019.1 1016.2 0.0
27/03:00pm 15.1 6.8 2.3 42 6.0 WSW 35 46 19 25 1019.1 1016.2 0.0
27/02:40pm 15.3 7.9 1.8 40 6.3 WSW 30 50 16 27 1019.1 1016.2 0.0
27/02:30pm 14.9 7.0 2.1 42 6.0 W 33 46 18 25 1019.2 1016.4 0.0
27/02:00pm 15.2 6.5 1.7 40 6.2 WSW 37 52 20 28 1019.2 1016.4 0.0
27/01:30pm 15.1 7.2 2.3 42 6.0 WSW 33 44 18 24 1019.2 1016.4 0.0
27/01:00pm 15.1 7.7 2.0 41 6.1 W 30 44 16 24 1019.4 1016.6 0.0
27/12:41pm 14.9 7.9 2.1 42 6.0 WSW 28 46 15 25 1019.6 1016.8 0.0
27/12:30pm 14.8 7.3 1.3 40 6.2 WSW 30 46 16 25 1019.6 1016.8 0.0
27/12:00pm 14.4 6.4 0.3 38 6.3 WSW 32 41 17 22 1019.9 1017.1 0.0
27/11:30am 14.1 6.6 1.1 41 5.9 WSW 30 44 16 24 1019.7 1016.9 0.0
27/11:00am 13.7 6.7 -0.3 38 6.1 WSW 26 41 14 22 1019.9 1017.1 0.0
27/10:30am 13.0 6.3 1.4 45 5.2 W 26 35 14 19 1019.6 1016.8 0.0
27/10:00am 12.0 6.4 1.1 47 4.8 W 20 32 11 17 1019.6 1016.8 0.0
27/09:30am 11.0 5.3 0.7 49 4.5 W 20 32 11 17 1019.6 1016.8 0.0
27/09:00am 10.5 5.3 2.4 57 3.7 W 19 26 10 14 1019.5 1016.7 -
27/08:30am 9.3 4.4 2.2 61 3.2 WNW 17 22 9 12 1019.5 1016.7 -
27/08:00am 7.9 3.3 1.3 63 2.8 WNW 15 20 8 11 1019.1 1016.2 -
27/07:30am 6.8 2.9 0.9 66 2.5 WNW 11 17 6 9 1019.0 1016.1 -
27/07:00am 6.7 2.4 0.8 66 2.5 S 13 20 7 11 1018.5 1015.7 -
27/06:30am 7.4 2.3 1.0 64 2.7 W 17 26 9 14 1018.3 1015.5 -
27/06:00am 7.2 2.2 1.5 67 2.4 W 17 30 9 16 1017.9 1015.0 -
27/05:30am 6.3 3.1 1.0 69 2.2 NW 7 13 4 7 1017.8 1014.9 -
27/05:00am 7.2 1.8 1.1 65 2.6 WNW 19 32 10 17 1017.8 1014.9 -
27/04:30am 6.6 2.6 0.7 66 2.5 WNW 11 19 6 10 1017.9 1015.0 -
27/04:00am 6.6 2.2 0.3 64 2.6 W 13 20 7 11 1018.1 1015.2 -
27/03:30am 7.1 1.9 0.3 62 2.8 WNW 17 32 9 17 1018.2 1015.3 -
27/03:00am 6.5 2.8 -0.2 62 2.7 WNW 9 22 5 12 1018.3 1015.5 -
27/02:30am 6.7 2.2 -0.5 60 2.9 NNW 13 20 7 11 1018.6 1015.8 -
27/02:00am 7.3 3.8 -1.1 55 3.4 NE 7 17 4 9 1019.1 1016.2 -
27/01:30am 7.3 3.8 -1.4 54 3.5 ENE 7 17 4 9 1019.2 1016.4 -
27/01:00am 7.4 2.7 -1.5 53 3.6 NW 13 24 7 13 1019.2 1016.4 -
27/12:30am 7.7 1.3 -1.5 52 3.7 NW 22 33 12 18 1019.4 1016.6 -
27/12:00am 7.3 1.3 -1.6 53 3.5 WNW 20 30 11 16 1019.6 1016.8 -
 
Date/Time
EDT
Temp
°C
App
Temp
°C
Dew
Point
Rel
Hum
%
Delta-T
°C
Wind Press
QNH
hPa
Press
MSL
hPa
Rain
since 9 am
mm
Dir
 
Spd
km/h
Gust
km/h
Spd
kts
Gust
kts
26/11:30pm 6.9 1.8 -2.3 52 3.6 WNW 15 20 8 11 1019.6 1016.8 -
26/11:00pm 7.2 1.3 -2.0 52 3.6 WNW 19 28 10 15 1019.8 1017.0 -
26/10:30pm 7.1 1.6 -2.3 51 3.7 WNW 17 30 9 16 1020.0 1017.2 -
26/10:00pm 7.6 2.4 -2.7 48 4.0 NW 15 30 8 16 1019.9 1017.1 -
26/09:30pm 7.6 3.5 -3.0 47 4.1 WNW 9 15 5 8 1020.4 1017.6 -
26/09:00pm 8.5 2.9 -3.0 44 4.5 NW 17 32 9 17 1019.9 1017.1 -
26/08:30pm 8.1 2.9 -2.8 46 4.3 W 15 22 8 12 1020.0 1017.2 -
26/08:00pm 8.3 3.8 -3.5 43 4.5 W 11 17 6 9 1019.6 1016.8 -
26/07:30pm 8.6 3.3 -3.6 42 4.7 W 15 28 8 15 1019.2 1016.4 -
26/07:00pm 9.8 4.1 -3.5 39 5.2 WNW 17 32 9 17 1018.8 1016.0 0.0
26/06:30pm 11.2 5.1 -3.7 35 5.9 WNW 19 30 10 16 1018.4 1015.6 0.0
26/06:00pm 12.3 4.9 -3.5 33 6.4 WNW 26 39 14 21 1018.1 1015.2 0.0
26/05:30pm 12.9 6.4 -2.6 34 6.4 W 22 39 12 21 1018.3 1015.5 0.0
26/05:00pm 13.5 6.7 -2.0 34 6.5 WNW 24 39 13 21 1018.0 1015.1 0.0
26/04:30pm 13.8 6.2 -1.8 34 6.6 WNW 28 41 15 22 1017.8 1014.9 0.0
26/04:00pm 14.3 6.8 -1.3 34 6.7 W 28 44 15 24 1017.5 1014.7 0.0
26/03:30pm 14.3 6.6 -0.2 37 6.4 NW 30 48 16 26 1017.3 1014.5 0.0
26/03:03pm 14.8 7.6 0.6 38 6.4 WNW 28 48 15 26 1017.2 1014.3 0.0
26/03:00pm 15.6 9.2 1.0 37 6.7 WNW 24 41 13 22 1017.2 1014.3 0.0
26/02:35pm 14.2 6.8 1.8 43 5.7 WNW 30 48 16 26 1017.2 1014.3 0.0
26/02:30pm 14.7 6.9 1.9 42 5.9 NW 32 44 17 24 1017.2 1014.3 0.0
26/02:00pm 14.9 6.5 1.4 40 6.2 WNW 35 54 19 29 1017.3 1014.5 0.0
26/01:30pm 15.7 8.0 2.2 40 6.3 NW 32 52 17 28 1017.3 1014.5 0.0
26/01:24pm 14.9 8.0 2.8 44 5.7 WNW 28 52 15 28 1017.2 1014.3 0.0
26/01:00pm 14.9 7.8 1.1 39 6.3 W 28 43 15 23 1017.3 1014.5 0.0
26/12:30pm 15.6 7.7 1.3 38 6.6 WNW 32 56 17 30 1017.4 1014.6 0.0
26/12:28pm 16.0 8.6 1.7 38 6.7 WNW 30 48 16 26 1017.4 1014.6 0.0
26/12:00pm 15.3 7.8 1.4 39 6.4 WNW 30 41 16 22 1017.3 1014.5 0.0
26/11:30am 14.9 9.4 1.8 41 6.1 NW 20 37 11 20 1017.3 1014.5 0.0
26/11:00am 14.5 7.2 2.4 44 5.6 W 30 43 16 23 1017.4 1014.6 0.0
26/10:55am 14.2 6.4 1.8 43 5.7 W 32 44 17 24 1017.3 1014.5 0.0
26/10:43am 13.9 8.0 1.9 44 5.5 W 22 46 12 25 1017.3 1014.5 0.0
26/10:30am 13.6 9.9 2.2 46 5.3 W 11 20 6 11 1017.4 1014.6 0.0
26/10:00am 12.4 8.1 1.1 46 5.0 WSW 13 20 7 11 1017.6 1014.8 0.0
26/09:30am 11.7 7.1 1.4 49 4.6 WSW 15 17 8 9 1017.3 1014.5 0.0
26/09:00am 10.2 6.5 2.3 58 3.5 NW 11 17 6 9 1017.3 1014.5 0.2
26/08:30am 8.4 4.6 1.6 62 3.0 WNW 11 19 6 10 1017.3 1014.5 0.2
26/08:00am 8.0 3.8 1.4 63 2.8 NW 13 17 7 9 1017.1 1014.2 0.2
26/07:30am 7.5 2.9 1.8 67 2.5 WNW 15 20 8 11 1016.9 1014.0 0.2
26/07:00am 7.9 3.0 2.0 66 2.6 NW 17 24 9 13 1016.7 1013.8 0.2
26/06:30am 8.1 3.7 2.6 68 2.4 NW 15 24 8 13 1016.3 1013.5 0.2
26/06:00am 3.5 -0.3 1.5 87 0.8 N 11 19 6 10 1016.3 1013.5 0.2
26/05:30am 5.2 1.9 2.6 83 1.1 N 9 13 5 7 1016.4 1013.6 0.2
26/05:00am 4.9 2.0 2.6 85 1.0 N 7 9 4 5 1016.2 1013.3 0.2
26/04:30am 7.2 3.8 4.0 80 1.5 N 11 13 6 7 1016.4 1013.6 0.2
26/04:00am 5.4 2.2 2.9 84 1.1 N 9 11 5 6 1016.4 1013.6 0.2
26/03:30am 6.3 4.0 4.8 90 0.7 NNW 6 9 3 5 1016.5 1013.7 0.2
26/03:00am 5.9 3.7 5.2 95 0.3 E 6 9 3 5 1016.8 1013.9 0.2
26/02:30am 5.6 2.0 5.0 96 0.3 NNE 13 19 7 10 1016.9 1014.0 0.2
26/02:00am 5.4 2.6 5.3 99 0.0 NE 9 11 5 6 1017.1 1014.2 0.2
26/01:30am 7.5 4.8 7.4 99 0.0 ENE 11 15 6 8 1017.0 1014.1 0.2
26/01:00am 7.8 5.9 7.7 99 0.0 NNE 7 9 4 5 1017.3 1014.5 0.2
26/12:30am 7.5 5.1 7.2 98 0.1 N 9 11 5 6 1017.1 1014.2 0.2
26/12:00am 7.7 5.0 7.3 97 0.2 NNE 11 15 6 8 1017.4 1014.6 0.2
 
Date/Time
EDT
Temp
°C
App
Temp
°C
Dew
Point
Rel
Hum
%
Delta-T
°C
Wind Press
QNH
hPa
Press
MSL
hPa
Rain
since 9 am
mm
Dir
 
Spd
km/h
Gust
km/h
Spd
kts
Gust
kts
25/11:30pm 8.7 6.7 8.6 99 0.1 NNE 9 13 5 7 1017.5 1014.7 0.2
25/11:00pm 8.3 6.2 8.2 99 0.1 NNW 9 11 5 6 1017.9 1015.0 0.2
25/10:30pm 8.1 5.6 8.0 99 0.1 NNE 11 15 6 8 1017.6 1014.8 0.2
25/10:00pm 8.7 6.3 8.6 99 0.1 NNE 11 13 6 7 1017.8 1014.9 0.2
25/09:30pm 8.1 5.4 7.3 95 0.4 NNE 11 13 6 7 1017.6 1014.8 0.2
25/09:00pm 9.2 6.7 8.1 93 0.6 NNE 11 15 6 8 1017.6 1014.8 0.2
25/08:30pm 10.2 7.8 8.8 91 0.7 NNE 11 13 6 7 1017.3 1014.5 0.2
25/08:00pm 10.9 9.0 9.2 89 0.9 N 9 13 5 7 1017.1 1014.2 0.2
25/07:30pm 11.7 7.4 9.3 85 1.3 ENE 22 30 12 16 1016.5 1013.7 0.2
25/07:00pm 12.9 8.9 9.2 78 2.0 ENE 20 24 11 13 1016.5 1013.7 0.2
25/06:30pm 14.3 9.2 9.3 72 2.7 ENE 26 32 14 17 1016.0 1013.1 0.2
25/06:00pm 15.2 9.7 9.3 68 3.2 ENE 28 35 15 19 1015.8 1012.9 0.2
25/05:30pm 16.6 10.6 8.8 60 4.2 ENE 30 37 16 20 1015.8 1012.9 0.2
25/05:00pm 18.9 13.4 6.1 43 6.6 NNE 24 32 13 17 1015.6 1012.7 0.2
25/04:30pm 19.0 14.2 7.4 47 6.2 NE 22 39 12 21 1015.7 1012.8 0.2
25/04:00pm 18.8 14.4 6.6 45 6.4 NE 19 28 10 15 1015.8 1012.9 0.2
25/03:30pm 18.8 14.7 6.0 43 6.6 NNE 17 26 9 14 1016.2 1013.3 0.2
25/03:00pm 18.6 15.7 6.4 45 6.4 N 11 22 6 12 1016.4 1013.6 0.2

Other Formats:

Comma delimited format used in spreadsheet applications
http://www.bom.gov.au/fwo/IDN60801/IDN60801.94921.axf

JavaScript Object Notation format (JSON) in row-major order
http://www.bom.gov.au/fwo/IDN60801/IDN60801.94921.json